createdAt,value
2023-02-19T00:00:34.602Z,99.99
2023-02-19T00:01:34.594Z,99.99
2023-02-19T00:02:34.581Z,99.99
2023-02-19T00:03:34.601Z,99.99
2023-02-19T00:04:34.585Z,99.99
2023-02-19T00:05:34.553Z,99.99
2023-02-19T00:06:34.529Z,99.99
2023-02-19T00:07:34.523Z,99.99
2023-02-19T00:08:34.527Z,99.99
2023-02-19T00:09:34.504Z,99.99
2023-02-19T00:10:34.506Z,99.99
2023-02-19T00:11:34.481Z,99.99
2023-02-19T00:12:34.462Z,99.99
2023-02-19T00:13:34.472Z,99.99
2023-02-19T00:14:34.464Z,99.99
2023-02-19T00:15:34.458Z,99.99
2023-02-19T00:16:34.431Z,99.99
2023-02-19T00:17:34.426Z,99.99
2023-02-19T00:18:34.407Z,99.99
2023-02-19T00:19:34.403Z,99.99
2023-02-19T00:20:34.393Z,99.99
2023-02-19T00:21:34.366Z,99.99
2023-02-19T00:22:34.365Z,99.99
2023-02-19T00:23:34.344Z,99.99
2023-02-19T00:24:34.343Z,99.99
2023-02-19T00:25:34.337Z,99.99
2023-02-19T00:26:34.305Z,99.99
2023-02-19T00:27:34.295Z,99.99
2023-02-19T00:28:34.295Z,99.99
2023-02-19T00:29:34.306Z,99.99
2023-02-19T00:30:34.294Z,99.99
2023-02-19T00:31:34.518Z,99.99
2023-02-19T00:32:34.248Z,99.99
2023-02-19T00:33:34.239Z,99.99
2023-02-19T00:34:34.239Z,99.99
2023-02-19T00:35:34.229Z,99.99
2023-02-19T00:36:34.200Z,99.99
2023-02-19T00:37:34.203Z,99.99
2023-02-19T00:38:34.210Z,99.99
2023-02-19T00:39:34.170Z,99.99
2023-02-19T00:40:34.185Z,99.99
2023-02-19T00:41:34.174Z,99.99
2023-02-19T00:42:34.170Z,99.99
2023-02-19T00:43:34.164Z,99.99
2023-02-19T00:44:34.198Z,99.99
2023-02-19T00:45:34.118Z,99.99
2023-02-19T00:46:34.152Z,99.99
2023-02-19T00:47:34.095Z,99.99
2023-02-19T00:48:34.094Z,99.99
2023-02-19T00:49:34.108Z,99.99
2023-02-19T00:50:34.060Z,99.99
2023-02-19T00:51:34.035Z,99.99
2023-02-19T00:52:34.045Z,99.99
2023-02-19T00:53:34.023Z,99.99
2023-02-19T00:54:34.024Z,99.99
2023-02-19T00:55:34.009Z,99.99
2023-02-19T00:56:33.988Z,99.99
2023-02-19T00:57:33.976Z,99.99
2023-02-19T00:58:33.965Z,99.99
2023-02-19T00:59:33.967Z,99.99
2023-02-19T01:00:33.944Z,99.99
2023-02-19T01:01:33.972Z,99.99
2023-02-19T01:02:33.916Z,99.96
2023-02-19T01:03:33.916Z,99.96
2023-02-19T01:04:33.904Z,99.96
2023-02-19T01:05:33.883Z,99.96
2023-02-19T01:06:33.864Z,99.99
2023-02-19T01:07:33.877Z,99.99
2023-02-19T01:08:33.886Z,99.99
2023-02-19T01:09:33.853Z,99.99
2023-02-19T01:10:33.833Z,99.99
2023-02-19T01:11:33.813Z,99.99
2023-02-19T01:12:33.803Z,99.99
2023-02-19T01:13:33.793Z,99.99
2023-02-19T01:14:33.805Z,99.99
2023-02-19T01:15:33.772Z,99.99
2023-02-19T01:16:33.779Z,99.99
2023-02-19T01:17:33.748Z,99.99
2023-02-19T01:18:33.751Z,99.99
2023-02-19T01:19:33.727Z,99.99
2023-02-19T01:20:33.723Z,99.99
2023-02-19T01:21:33.697Z,99.96
2023-02-19T01:22:33.717Z,99.96
2023-02-19T01:23:33.704Z,99.76
2023-02-19T01:24:33.679Z,99.80
2023-02-19T01:25:33.653Z,99.80
2023-02-19T01:26:33.655Z,99.91
2023-02-19T01:27:33.634Z,99.91
2023-02-19T01:28:33.653Z,99.91
2023-02-19T01:29:33.614Z,99.99
2023-02-19T01:30:33.656Z,99.99
2023-02-19T01:31:33.668Z,99.91
2023-02-19T01:32:33.590Z,99.91
2023-02-19T01:33:33.591Z,99.91
2023-02-19T01:34:33.569Z,99.91
2023-02-19T01:35:33.545Z,99.91
2023-02-19T01:36:33.535Z,99.80
2023-02-19T01:37:33.529Z,99.80
2023-02-19T01:38:33.535Z,99.80
2023-02-19T01:39:33.497Z,99.80
2023-02-19T01:40:33.567Z,99.80
2023-02-19T01:41:33.487Z,99.91
2023-02-19T01:42:33.488Z,99.91
2023-02-19T01:43:33.478Z,99.91
2023-02-19T01:44:33.509Z,99.76
2023-02-19T01:45:33.470Z,99.76
2023-02-19T01:46:33.471Z,99.70
2023-02-19T01:47:33.420Z,99.70
2023-02-19T01:48:33.433Z,99.60
2023-02-19T01:49:33.408Z,99.55
2023-02-19T01:50:33.405Z,99.60
2023-02-19T01:51:33.374Z,99.50
2023-02-19T01:52:33.377Z,99.45
2023-02-19T01:53:33.375Z,99.55
2023-02-19T01:54:33.346Z,99.55
2023-02-19T01:55:33.365Z,99.55
2023-02-19T01:56:33.342Z,99.60
2023-02-19T01:57:33.314Z,99.55
2023-02-19T01:58:33.339Z,99.60
2023-02-19T01:59:33.300Z,99.66
2023-02-19T02:00:33.304Z,99.66
2023-02-19T02:01:33.282Z,99.66
2023-02-19T02:02:33.282Z,99.66
2023-02-19T02:03:33.254Z,99.55
2023-02-19T02:04:33.253Z,99.66
2023-02-19T02:05:33.233Z,99.55
2023-02-19T02:06:33.213Z,99.55
2023-02-19T02:07:33.210Z,99.55
2023-02-19T02:08:33.204Z,99.55
2023-02-19T02:09:33.182Z,99.60
2023-02-19T02:10:33.172Z,99.60
2023-02-19T02:11:33.160Z,99.60
2023-02-19T02:12:33.142Z,99.70
2023-02-19T02:13:33.138Z,99.70
2023-02-19T02:14:33.133Z,99.70
2023-02-19T02:15:33.106Z,99.80
2023-02-19T02:16:33.118Z,99.80
2023-02-19T02:17:33.088Z,99.80
2023-02-19T02:18:33.098Z,99.80
2023-02-19T02:19:33.084Z,99.70
2023-02-19T02:20:33.059Z,99.70
2023-02-19T02:21:33.038Z,99.66
2023-02-19T02:22:33.040Z,99.66
2023-02-19T02:23:33.040Z,99.55
2023-02-19T02:24:33.007Z,99.35
2023-02-19T02:25:33.017Z,99.15
2023-02-19T02:26:33.009Z,99.15
2023-02-19T02:27:32.981Z,99.15
2023-02-19T02:28:32.994Z,98.94
2023-02-19T02:29:32.961Z,98.83
2023-02-19T02:30:33.023Z,98.83
2023-02-19T02:31:33.006Z,98.83
2023-02-19T02:32:32.933Z,98.83
2023-02-19T02:33:32.927Z,98.63
2023-02-19T02:34:32.914Z,98.53
2023-02-19T02:35:32.893Z,98.43
2023-02-19T02:36:33.083Z,98.43
2023-02-19T02:37:32.898Z,98.33
2023-02-19T02:38:32.907Z,98.22
2023-02-19T02:39:32.846Z,98.02
2023-02-19T02:40:32.843Z,98.02
2023-02-19T02:41:32.825Z,97.91
2023-02-19T02:42:32.814Z,97.81
2023-02-19T02:43:32.850Z,97.71
2023-02-19T02:44:32.794Z,97.71
2023-02-19T02:45:32.831Z,97.50
2023-02-19T02:46:32.765Z,97.61
2023-02-19T02:47:32.764Z,97.50
2023-02-19T02:48:32.763Z,97.61
2023-02-19T02:49:32.744Z,97.36
2023-02-19T02:50:32.725Z,97.15
2023-02-19T02:51:32.715Z,97.05
2023-02-19T02:52:32.696Z,96.95
2023-02-19T02:53:32.707Z,97.05
2023-02-19T02:54:32.676Z,97.15
2023-02-19T02:55:32.679Z,97.15
2023-02-19T02:56:32.656Z,97.15
2023-02-19T02:57:32.653Z,97.36
2023-02-19T02:58:32.645Z,97.25
2023-02-19T02:59:32.628Z,97.36
2023-02-19T03:00:32.608Z,97.36
2023-02-19T03:01:32.608Z,97.36
2023-02-19T03:02:32.623Z,97.36
2023-02-19T03:03:32.595Z,97.50
2023-02-19T03:04:32.566Z,97.50
2023-02-19T03:05:32.568Z,97.50
2023-02-19T03:06:32.547Z,97.61
2023-02-19T03:07:32.544Z,97.61
2023-02-19T03:08:32.537Z,97.81
2023-02-19T03:09:32.517Z,97.91
2023-02-19T03:10:32.498Z,98.22
2023-02-19T03:11:32.506Z,98.33
2023-02-19T03:12:32.477Z,98.43
2023-02-19T03:13:32.631Z,98.43
2023-02-19T03:14:32.459Z,98.43
2023-02-19T03:15:32.452Z,98.43
2023-02-19T03:16:32.453Z,98.43
2023-02-19T03:17:32.430Z,98.43
2023-02-19T03:18:32.419Z,98.43
2023-02-19T03:19:32.419Z,98.43
2023-02-19T03:20:32.400Z,98.43
2023-02-19T03:21:32.390Z,98.33
2023-02-19T03:22:32.369Z,98.33
2023-02-19T03:23:32.380Z,98.22
2023-02-19T03:24:32.348Z,98.12
2023-02-19T03:25:32.337Z,98.02
2023-02-19T03:26:32.332Z,98.02
2023-02-19T03:27:32.318Z,98.02
2023-02-19T03:28:32.330Z,98.22
2023-02-19T03:29:32.299Z,98.33
2023-02-19T03:30:32.288Z,98.43
2023-02-19T03:31:32.343Z,98.43
2023-02-19T03:32:32.270Z,98.43
2023-02-19T03:33:32.259Z,98.43
2023-02-19T03:34:32.242Z,98.43
2023-02-19T03:35:32.238Z,98.53
2023-02-19T03:36:32.208Z,98.53
2023-02-19T03:37:32.215Z,98.43
2023-02-19T03:38:32.222Z,98.43
2023-02-19T03:39:32.193Z,98.43
2023-02-19T03:40:32.181Z,98.33
2023-02-19T03:41:32.161Z,98.33
2023-02-19T03:42:32.147Z,98.33
2023-02-19T03:43:32.160Z,98.33
2023-02-19T03:44:32.150Z,98.33
2023-02-19T03:45:32.150Z,98.22
2023-02-19T03:46:32.102Z,98.12
2023-02-19T03:47:32.089Z,98.12
2023-02-19T03:48:32.092Z,98.12
2023-02-19T03:49:32.072Z,98.02
2023-02-19T03:50:32.053Z,97.81
2023-02-19T03:51:32.069Z,97.61
2023-02-19T03:52:32.047Z,97.61
2023-02-19T03:53:32.057Z,97.71
2023-02-19T03:54:32.017Z,97.50
2023-02-19T03:55:32.012Z,97.09
2023-02-19T03:56:32.002Z,96.99
2023-02-19T03:57:31.985Z,97.20
2023-02-19T03:58:31.988Z,97.30
2023-02-19T03:59:31.965Z,97.40
2023-02-19T04:00:31.948Z,97.40
2023-02-19T04:01:31.946Z,97.40
2023-02-19T04:02:32.013Z,97.30
2023-02-19T04:03:31.939Z,97.20
2023-02-19T04:04:31.956Z,97.20
2023-02-19T04:05:31.912Z,97.40
2023-02-19T04:06:31.899Z,97.40
2023-02-19T04:07:31.886Z,97.55
2023-02-19T04:08:31.891Z,97.55
2023-02-19T04:09:31.872Z,97.45
2023-02-19T04:10:31.848Z,97.45
2023-02-19T04:11:31.844Z,97.45
2023-02-19T04:12:31.820Z,97.45
2023-02-19T04:13:31.840Z,97.34
2023-02-19T04:14:31.802Z,97.34
2023-02-19T04:15:31.803Z,97.45
2023-02-19T04:16:31.798Z,97.45
2023-02-19T04:17:31.766Z,97.24
2023-02-19T04:18:31.778Z,97.04
2023-02-19T04:19:31.754Z,96.79
2023-02-19T04:20:31.736Z,96.79
2023-02-19T04:21:31.724Z,96.58
2023-02-19T04:22:31.713Z,96.48
2023-02-19T04:23:31.726Z,96.48
2023-02-19T04:24:31.704Z,96.48
2023-02-19T04:25:31.693Z,96.38
2023-02-19T04:26:31.675Z,96.48
2023-02-19T04:27:31.652Z,96.48
2023-02-19T04:28:31.685Z,96.58
2023-02-19T04:29:31.646Z,96.73
2023-02-19T04:30:31.710Z,96.94
2023-02-19T04:31:31.706Z,96.83
2023-02-19T04:32:31.606Z,96.73
2023-02-19T04:33:31.596Z,96.73
2023-02-19T04:34:31.606Z,96.28
2023-02-19T04:35:31.564Z,96.28
2023-02-19T04:36:31.555Z,96.28
2023-02-19T04:37:31.548Z,96.32
2023-02-19T04:38:31.554Z,96.42
2023-02-19T04:39:31.532Z,96.32
2023-02-19T04:40:31.519Z,96.32
2023-02-19T04:41:31.499Z,96.22
2023-02-19T04:42:31.490Z,96.22
2023-02-19T04:43:31.493Z,96.22
2023-02-19T04:44:31.468Z,96.32
2023-02-19T04:45:31.448Z,96.32
2023-02-19T04:46:31.456Z,96.32
2023-02-19T04:47:31.440Z,96.42
2023-02-19T04:48:31.431Z,96.32
2023-02-19T04:49:31.411Z,96.32
2023-02-19T04:50:31.401Z,96.12
2023-02-19T04:51:31.379Z,95.70
2023-02-19T04:52:31.381Z,95.70
2023-02-19T04:53:31.396Z,95.61
2023-02-19T04:54:31.351Z,95.29
2023-02-19T04:55:31.341Z,95.40
2023-02-19T04:56:31.334Z,95.29
2023-02-19T04:57:31.340Z,95.15
2023-02-19T04:58:31.322Z,95.15
2023-02-19T04:59:31.323Z,95.25
2023-02-19T05:00:31.296Z,95.25
2023-02-19T05:01:31.300Z,95.25
2023-02-19T05:02:31.274Z,95.36
2023-02-19T05:03:31.253Z,95.36
2023-02-19T05:04:31.321Z,95.05
2023-02-19T05:05:31.241Z,95.05
2023-02-19T05:06:31.224Z,95.25
2023-02-19T05:07:31.216Z,95.29
2023-02-19T05:08:31.203Z,95.50
2023-02-19T05:09:31.196Z,95.61
2023-02-19T05:10:31.177Z,95.70
2023-02-19T05:11:31.178Z,95.70
2023-02-19T05:12:31.166Z,95.61
2023-02-19T05:13:31.174Z,95.50
2023-02-19T05:14:31.157Z,95.61
2023-02-19T05:15:31.151Z,95.81
2023-02-19T05:16:31.119Z,96.01
2023-02-19T05:17:31.101Z,96.01
2023-02-19T05:18:31.116Z,96.12
2023-02-19T05:19:31.091Z,96.12
2023-02-19T05:20:31.080Z,96.32
2023-02-19T05:21:31.077Z,96.53
2023-02-19T05:22:31.060Z,96.53
2023-02-19T05:23:31.053Z,96.63
2023-02-19T05:24:31.037Z,96.83
2023-02-19T05:25:31.016Z,97.08
2023-02-19T05:26:31.008Z,96.98
2023-02-19T05:27:30.989Z,97.19
2023-02-19T05:28:30.981Z,97.08
2023-02-19T05:29:30.982Z,97.08
2023-02-19T05:30:30.994Z,97.08
2023-02-19T05:31:31.066Z,97.08
2023-02-19T05:32:30.938Z,97.08
2023-02-19T05:33:30.938Z,97.08
2023-02-19T05:34:30.939Z,97.08
2023-02-19T05:35:30.900Z,97.08
2023-02-19T05:36:30.889Z,97.19
2023-02-19T05:37:30.879Z,97.19
2023-02-19T05:38:30.879Z,97.08
2023-02-19T05:39:30.870Z,97.08
2023-02-19T05:40:30.859Z,96.98
2023-02-19T05:41:30.841Z,96.98
2023-02-19T05:42:30.820Z,96.88
2023-02-19T05:43:30.817Z,96.98
2023-02-19T05:44:30.827Z,96.98
2023-02-19T05:45:30.793Z,96.57
2023-02-19T05:46:30.823Z,96.37
2023-02-19T05:47:30.770Z,96.12
2023-02-19T05:48:30.761Z,95.91
2023-02-19T05:49:30.761Z,95.91
2023-02-19T05:50:30.742Z,95.91
2023-02-19T05:51:30.724Z,96.01
2023-02-19T05:52:30.732Z,96.01
2023-02-19T05:53:30.706Z,96.01
2023-02-19T05:54:30.707Z,95.91
2023-02-19T05:55:30.682Z,96.01
2023-02-19T05:56:30.687Z,96.06
2023-02-19T05:57:30.652Z,96.12
2023-02-19T05:58:30.660Z,96.37
2023-02-19T05:59:30.673Z,96.47
2023-02-19T06:00:30.625Z,96.57
2023-02-19T06:01:30.652Z,96.67
2023-02-19T06:02:30.638Z,96.88
2023-02-19T06:03:30.606Z,96.88
2023-02-19T06:04:30.604Z,96.88
2023-02-19T06:05:30.572Z,96.98
2023-02-19T06:06:30.563Z,97.08
2023-02-19T06:07:30.556Z,97.08
2023-02-19T06:08:30.546Z,97.08
2023-02-19T06:09:30.534Z,96.88
2023-02-19T06:10:30.526Z,96.88
2023-02-19T06:11:30.506Z,96.88
2023-02-19T06:12:30.494Z,97.08
2023-02-19T06:13:30.485Z,96.98
2023-02-19T06:14:30.487Z,96.98
2023-02-19T06:15:30.466Z,96.88
2023-02-19T06:16:30.455Z,96.98
2023-02-19T06:17:30.444Z,96.98
2023-02-19T06:18:30.427Z,97.08
2023-02-19T06:19:30.427Z,97.29
2023-02-19T06:20:30.415Z,97.19
2023-02-19T06:21:30.412Z,97.19
2023-02-19T06:22:30.385Z,97.19
2023-02-19T06:23:30.382Z,97.19
2023-02-19T06:24:30.378Z,97.19
2023-02-19T06:25:30.356Z,97.19
2023-02-19T06:26:30.359Z,97.08
2023-02-19T06:27:30.345Z,97.08
2023-02-19T06:28:30.330Z,97.03
2023-02-19T06:29:30.322Z,97.13
2023-02-19T06:30:30.375Z,97.13
2023-02-19T06:31:30.384Z,97.13
2023-02-19T06:32:30.335Z,97.13
2023-02-19T06:33:30.272Z,97.13
2023-02-19T06:34:30.272Z,96.92
2023-02-19T06:35:30.259Z,96.92
2023-02-19T06:36:30.246Z,96.92
2023-02-19T06:37:30.226Z,96.67
2023-02-19T06:38:30.214Z,96.72
2023-02-19T06:39:30.213Z,96.72
2023-02-19T06:40:30.214Z,96.72
2023-02-19T06:41:30.186Z,96.57
2023-02-19T06:42:30.178Z,96.41
2023-02-19T06:43:30.155Z,96.26
2023-02-19T06:44:30.189Z,96.06
2023-02-19T06:45:30.144Z,96.16
2023-02-19T06:46:30.155Z,96.16
2023-02-19T06:47:30.120Z,96.16
2023-02-19T06:48:30.128Z,96.26
2023-02-19T06:49:30.192Z,96.16
2023-02-19T06:50:30.088Z,96.06
2023-02-19T06:51:30.127Z,95.95
2023-02-19T06:52:30.070Z,95.86
2023-02-19T06:53:30.054Z,95.95
2023-02-19T06:54:30.048Z,95.90
2023-02-19T06:55:30.041Z,96.00
2023-02-19T06:56:30.036Z,96.10
2023-02-19T06:57:30.000Z,96.00
2023-02-19T06:58:30.010Z,95.90
2023-02-19T06:59:30.022Z,95.90
2023-02-19T07:00:30.104Z,96.00
2023-02-19T07:01:29.970Z,96.00
2023-02-19T07:02:29.950Z,95.75
2023-02-19T07:03:29.939Z,95.54
2023-02-19T07:04:29.956Z,95.54
2023-02-19T07:05:29.930Z,95.44
2023-02-19T07:06:29.899Z,95.44
2023-02-19T07:07:29.896Z,95.44
2023-02-19T07:08:29.885Z,95.54
2023-02-19T07:09:29.896Z,95.65
2023-02-19T07:10:29.861Z,95.65
2023-02-19T07:11:29.898Z,95.69
2023-02-19T07:12:29.836Z,95.79
2023-02-19T07:13:29.849Z,95.54
2023-02-19T07:14:29.834Z,95.24
2023-02-19T07:15:29.819Z,95.24
2023-02-19T07:16:29.918Z,95.24
2023-02-19T07:17:29.785Z,95.24
2023-02-19T07:18:29.778Z,95.24
2023-02-19T07:19:29.776Z,95.24
2023-02-19T07:20:29.797Z,95.34
2023-02-19T07:21:29.739Z,95.44
2023-02-19T07:22:29.746Z,95.44
2023-02-19T07:23:29.727Z,95.54
2023-02-19T07:24:29.717Z,95.44
2023-02-19T07:25:29.686Z,95.44
2023-02-19T07:26:29.687Z,95.65
2023-02-19T07:27:29.672Z,95.75
2023-02-19T07:28:29.668Z,95.86
2023-02-19T07:29:29.656Z,95.86
2023-02-19T07:30:29.716Z,95.95
2023-02-19T07:31:29.748Z,96.16
2023-02-19T07:32:29.618Z,96.31
2023-02-19T07:33:29.609Z,96.51
2023-02-19T07:34:29.619Z,96.72
2023-02-19T07:35:29.587Z,96.82
2023-02-19T07:36:29.579Z,97.03
2023-02-19T07:37:29.564Z,97.23
2023-02-19T07:38:29.551Z,97.33
2023-02-19T07:39:29.542Z,97.54
2023-02-19T07:40:29.542Z,97.64
2023-02-19T07:41:29.522Z,97.74
2023-02-19T07:42:29.512Z,97.85
2023-02-19T07:43:29.497Z,97.95
2023-02-19T07:44:29.505Z,98.05
2023-02-19T07:45:29.509Z,97.95
2023-02-19T07:46:29.477Z,98.16
2023-02-19T07:47:29.459Z,98.16
2023-02-19T07:48:29.452Z,97.95
2023-02-19T07:49:29.474Z,97.95
2023-02-19T07:50:29.434Z,97.95
2023-02-19T07:51:29.420Z,98.05
2023-02-19T07:52:29.408Z,98.16
2023-02-19T07:53:29.396Z,98.25
2023-02-19T07:54:29.388Z,98.25
2023-02-19T07:55:29.367Z,98.25
2023-02-19T07:56:29.380Z,98.36
2023-02-19T07:57:29.367Z,98.36
2023-02-19T07:58:29.363Z,98.36
2023-02-19T07:59:29.338Z,98.25
2023-02-19T08:00:29.321Z,98.16
2023-02-19T08:01:29.373Z,98.16
2023-02-19T08:02:29.300Z,98.25
2023-02-19T08:03:29.392Z,98.25
2023-02-19T08:04:29.300Z,98.16
2023-02-19T08:05:29.269Z,98.16
2023-02-19T08:06:29.257Z,98.16
2023-02-19T08:07:29.250Z,98.16
2023-02-19T08:08:29.242Z,98.16
2023-02-19T08:09:29.230Z,98.05
2023-02-19T08:10:29.221Z,98.16
2023-02-19T08:11:29.217Z,98.05
2023-02-19T08:12:29.180Z,98.05
2023-02-19T08:13:29.171Z,98.05
2023-02-19T08:14:29.190Z,97.95
2023-02-19T08:15:29.156Z,98.05
2023-02-19T08:16:42.690Z,97.85
2023-02-19T08:17:30.194Z,97.74
2023-02-19T08:18:29.123Z,97.64
2023-02-19T08:19:29.132Z,97.64
2023-02-19T08:20:29.103Z,97.85
2023-02-19T08:21:29.083Z,97.85
2023-02-19T08:22:29.096Z,97.95
2023-02-19T08:23:29.070Z,97.95
2023-02-19T08:24:29.073Z,97.95
2023-02-19T08:25:29.051Z,97.95
2023-02-19T08:26:29.045Z,97.95
2023-02-19T08:27:29.015Z,98.05
2023-02-19T08:28:29.019Z,97.95
2023-02-19T08:29:29.009Z,97.95
2023-02-19T08:30:29.077Z,97.74
2023-02-19T08:31:29.136Z,97.54
2023-02-19T08:32:28.980Z,97.54
2023-02-19T08:33:28.953Z,97.64
2023-02-19T08:34:28.966Z,97.64
2023-02-19T08:35:28.948Z,97.64
2023-02-19T08:36:28.924Z,97.64
2023-02-19T08:37:28.915Z,97.64
2023-02-19T08:38:28.902Z,97.64
2023-02-19T08:39:28.903Z,97.64
2023-02-19T08:40:28.884Z,97.74
2023-02-19T08:41:28.863Z,97.74
2023-02-19T08:42:28.874Z,97.70
2023-02-19T08:43:28.854Z,97.80
2023-02-19T08:44:28.844Z,97.80
2023-02-19T08:45:28.827Z,97.60
2023-02-19T08:46:28.826Z,97.49
2023-02-19T08:47:28.810Z,97.29
2023-02-19T08:48:28.801Z,97.08
2023-02-19T08:49:28.788Z,97.08
2023-02-19T08:50:28.767Z,96.98
2023-02-19T08:51:28.753Z,96.88
2023-02-19T08:52:28.773Z,96.42
2023-02-19T08:53:28.724Z,96.53
2023-02-19T08:54:28.726Z,96.42
2023-02-19T08:55:28.703Z,96.42
2023-02-19T08:56:28.703Z,96.42
2023-02-19T08:57:28.695Z,95.91
2023-02-19T08:58:28.676Z,95.70
2023-02-19T08:59:28.675Z,95.81
2023-02-19T09:00:28.659Z,95.76
2023-02-19T09:01:28.701Z,95.66
2023-02-19T09:02:28.634Z,95.76
2023-02-19T09:03:28.703Z,95.25
2023-02-19T09:04:28.676Z,95.05
2023-02-19T09:05:28.605Z,94.90
2023-02-19T09:06:28.602Z,94.70
2023-02-19T09:07:28.578Z,94.59
2023-02-19T09:08:28.566Z,94.43
2023-02-19T09:09:28.588Z,93.71
2023-02-19T09:10:28.555Z,94.02
2023-02-19T09:11:28.533Z,94.23
2023-02-19T09:12:28.529Z,94.33
2023-02-19T09:13:28.506Z,94.12
2023-02-19T09:14:28.514Z,94.12
2023-02-19T09:15:28.563Z,93.92
2023-02-19T09:16:28.485Z,93.51
2023-02-19T09:17:28.467Z,93.82
2023-02-19T09:18:28.466Z,93.41
2023-02-19T09:19:28.458Z,93.51
2023-02-19T09:20:28.439Z,93.26
2023-02-19T09:21:28.428Z,93.26
2023-02-19T09:22:28.452Z,93.26
2023-02-19T09:23:28.409Z,92.55
2023-02-19T09:24:28.403Z,92.55
2023-02-19T09:25:28.387Z,92.75
2023-02-19T09:26:28.381Z,92.65
2023-02-19T09:27:28.372Z,92.30
2023-02-19T09:28:28.365Z,92.40
2023-02-19T09:29:28.353Z,91.89
2023-02-19T09:30:28.358Z,92.19
2023-02-19T09:31:28.406Z,92.50
2023-02-19T09:32:28.316Z,92.19
2023-02-19T09:33:28.285Z,91.78
2023-02-19T09:34:28.305Z,92.19
2023-02-19T09:35:28.275Z,91.64
2023-02-19T09:36:28.264Z,91.23
2023-02-19T09:37:28.254Z,90.72
2023-02-19T09:38:28.246Z,90.72
2023-02-19T09:39:28.255Z,90.52
2023-02-19T09:40:28.226Z,90.72
2023-02-19T09:41:28.200Z,90.31
2023-02-19T09:42:28.197Z,90.82
2023-02-19T09:43:28.186Z,90.11
2023-02-19T09:44:28.422Z,89.70
2023-02-19T09:45:28.157Z,90.15
2023-02-19T09:46:28.178Z,90.36
2023-02-19T09:47:28.137Z,90.56
2023-02-19T09:48:28.118Z,90.60
2023-02-19T09:49:28.133Z,91.11
2023-02-19T09:50:28.112Z,91.22
2023-02-19T09:51:28.085Z,91.63
2023-02-19T09:52:28.092Z,91.31
2023-02-19T09:53:28.071Z,91.31
2023-02-19T09:54:28.075Z,91.73
2023-02-19T09:55:28.040Z,92.03
2023-02-19T09:56:28.048Z,92.14
2023-02-19T09:57:28.027Z,92.24
2023-02-19T09:58:28.019Z,91.73
2023-02-19T09:59:28.017Z,91.93
2023-02-19T10:00:27.993Z,91.93
2023-02-19T10:01:28.076Z,92.24
2023-02-19T10:02:27.988Z,92.03
2023-02-19T10:03:27.949Z,91.93
2023-02-19T10:04:27.968Z,92.34
2023-02-19T10:05:28.000Z,92.75
2023-02-19T10:06:27.927Z,92.44
2023-02-19T10:07:27.918Z,93.06
2023-02-19T10:08:27.908Z,93.16
2023-02-19T10:09:27.899Z,93.37
2023-02-19T10:10:27.896Z,93.57
2023-02-19T10:11:27.869Z,93.47
2023-02-19T10:12:27.864Z,93.47
2023-02-19T10:13:27.848Z,93.77
2023-02-19T10:14:28.034Z,93.67
2023-02-19T10:15:27.830Z,93.88
2023-02-19T10:16:27.832Z,93.77
2023-02-19T10:17:27.834Z,93.98
2023-02-19T10:18:27.790Z,94.08
2023-02-19T10:19:27.806Z,94.18
2023-02-19T10:20:27.784Z,94.49
2023-02-19T10:21:27.760Z,94.39
2023-02-19T10:22:27.751Z,94.49
2023-02-19T10:23:27.748Z,94.59
2023-02-19T10:24:27.747Z,94.59
2023-02-19T10:25:27.724Z,94.33
2023-02-19T10:26:27.733Z,94.33
2023-02-19T10:27:27.783Z,94.43
2023-02-19T10:28:27.714Z,94.43
2023-02-19T10:29:27.693Z,94.43
2023-02-19T10:30:27.761Z,94.33
2023-02-19T10:31:27.770Z,94.33
2023-02-19T10:32:27.646Z,93.92
2023-02-19T10:33:27.649Z,94.02
2023-02-19T10:34:27.706Z,94.02
2023-02-19T10:35:27.624Z,94.02
2023-02-19T10:36:30.531Z,94.02
2023-02-19T10:37:27.600Z,94.43
2023-02-19T10:38:27.636Z,94.74
2023-02-19T10:39:27.654Z,95.09
2023-02-19T10:40:27.563Z,95.29
2023-02-19T10:41:27.548Z,95.40
2023-02-19T10:42:27.531Z,95.50
2023-02-19T10:43:27.546Z,95.81
2023-02-19T10:44:27.585Z,96.01
2023-02-19T10:45:27.518Z,96.01
2023-02-19T10:46:27.562Z,96.12
2023-02-19T10:47:27.697Z,96.32
2023-02-19T10:48:27.480Z,96.69
2023-02-19T10:49:27.462Z,96.48
2023-02-19T10:50:27.458Z,96.28
2023-02-19T10:51:27.460Z,96.17
2023-02-19T10:52:27.428Z,96.38
2023-02-19T10:53:27.428Z,96.38
2023-02-19T10:54:27.435Z,96.17
2023-02-19T10:55:27.403Z,96.38
2023-02-19T10:56:27.382Z,96.28
2023-02-19T10:57:27.372Z,96.07
2023-02-19T10:58:27.371Z,95.76
2023-02-19T10:59:27.429Z,95.46
2023-02-19T11:00:27.382Z,95.56
2023-02-19T11:01:27.368Z,95.46
2023-02-19T11:02:27.333Z,95.46
2023-02-19T11:03:27.313Z,95.51
2023-02-19T11:04:27.383Z,94.90
2023-02-19T11:05:27.292Z,95.00
2023-02-19T11:06:27.272Z,95.47
2023-02-19T11:07:27.271Z,95.37
2023-02-19T11:08:27.250Z,95.06
2023-02-19T11:09:27.251Z,94.75
2023-02-19T11:10:27.237Z,94.96
2023-02-19T11:11:27.240Z,95.00
2023-02-19T11:12:27.201Z,94.59
2023-02-19T11:13:27.193Z,94.55
2023-02-19T11:14:27.284Z,94.75
2023-02-19T11:15:27.172Z,94.34
2023-02-19T11:16:27.237Z,94.34
2023-02-19T11:17:27.153Z,94.30
2023-02-19T11:18:27.143Z,94.51
2023-02-19T11:19:27.137Z,93.69
2023-02-19T11:20:27.145Z,93.59
2023-02-19T11:21:27.113Z,93.24
2023-02-19T11:22:27.104Z,93.13
2023-02-19T11:23:27.103Z,93.33
2023-02-19T11:24:27.223Z,93.24
2023-02-19T11:25:27.055Z,92.72
2023-02-19T11:26:27.062Z,92.21
2023-02-19T11:27:27.051Z,91.91
2023-02-19T11:28:27.034Z,91.70
2023-02-19T11:29:27.042Z,92.32
2023-02-19T11:30:27.057Z,92.58
2023-02-19T11:31:27.079Z,92.17
2023-02-19T11:32:27.068Z,91.46
2023-02-19T11:33:27.015Z,90.74
2023-02-19T11:34:27.043Z,90.94
2023-02-19T11:35:26.959Z,90.64
2023-02-19T11:36:29.832Z,90.84
2023-02-19T11:37:26.943Z,90.64
2023-02-19T11:38:26.920Z,91.00
2023-02-19T11:39:26.913Z,90.39
2023-02-19T11:40:26.906Z,89.98
2023-02-19T11:41:26.883Z,90.08
2023-02-19T11:42:29.244Z,89.78
2023-02-19T11:43:26.865Z,89.98
2023-02-19T11:44:26.874Z,89.26
2023-02-19T11:45:26.856Z,89.06
2023-02-19T11:46:26.886Z,88.96
2023-02-19T11:47:26.827Z,88.45
2023-02-19T11:48:27.816Z,88.55
2023-02-19T11:49:26.814Z,88.96
2023-02-19T11:50:26.814Z,88.35
2023-02-19T11:51:26.778Z,88.14
2023-02-19T11:52:26.770Z,88.35
2023-02-19T11:53:26.763Z,88.45
2023-02-19T11:54:26.761Z,88.35
2023-02-19T11:55:26.742Z,89.58
2023-02-19T11:56:26.718Z,88.79
2023-02-19T11:57:26.706Z,88.08
2023-02-19T11:58:26.699Z,88.39
2023-02-19T11:59:26.703Z,89.31
2023-02-19T12:00:26.677Z,89.41
2023-02-19T12:01:26.681Z,89.00
2023-02-19T12:02:26.658Z,89.11
2023-02-19T12:03:26.655Z,88.90
2023-02-19T12:04:26.647Z,88.39
2023-02-19T12:05:26.691Z,88.70
2023-02-19T12:06:26.608Z,89.00
2023-02-19T12:07:26.661Z,89.00
2023-02-19T12:08:26.588Z,89.41
2023-02-19T12:09:26.581Z,89.72
2023-02-19T12:10:26.569Z,89.82
2023-02-19T12:11:26.549Z,89.92
2023-02-19T12:12:26.551Z,89.31
2023-02-19T12:13:26.542Z,89.41
2023-02-19T12:14:26.548Z,89.41
2023-02-19T12:15:26.506Z,89.92
2023-02-19T12:16:26.517Z,89.72
2023-02-19T12:17:26.490Z,89.31
2023-02-19T12:18:26.509Z,89.92
2023-02-19T12:19:26.596Z,90.06
2023-02-19T12:20:26.529Z,90.17
2023-02-19T12:21:26.461Z,90.64
2023-02-19T12:22:26.466Z,90.43
2023-02-19T12:23:26.421Z,90.43
2023-02-19T12:24:26.441Z,90.74
2023-02-19T12:25:26.392Z,90.43
2023-02-19T12:26:26.389Z,90.12
2023-02-19T12:27:26.402Z,90.23
2023-02-19T12:28:26.397Z,90.27
2023-02-19T12:29:26.554Z,89.97
2023-02-19T12:30:26.440Z,90.58
2023-02-19T12:31:26.467Z,90.47
2023-02-19T12:32:26.958Z,90.27
2023-02-19T12:33:26.345Z,89.65
2023-02-19T12:34:26.393Z,89.56
2023-02-19T12:35:26.283Z,89.45
2023-02-19T12:36:33.378Z,90.17
2023-02-19T12:37:26.361Z,89.35
2023-02-19T12:38:26.294Z,89.86
2023-02-19T12:39:26.250Z,89.45
2023-02-19T12:40:26.238Z,89.35
2023-02-19T12:41:26.220Z,89.18
2023-02-19T12:42:26.297Z,89.18
2023-02-19T12:43:26.209Z,89.76
2023-02-19T12:44:26.220Z,90.17
2023-02-19T12:45:26.170Z,89.86
2023-02-19T12:46:26.273Z,90.27
2023-02-19T12:47:26.155Z,90.06
2023-02-19T12:48:26.142Z,90.37
2023-02-19T12:49:26.296Z,89.86
2023-02-19T12:50:26.165Z,89.35
2023-02-19T12:51:26.117Z,89.35
2023-02-19T12:52:26.104Z,90.17